Time;durP1;ratioP1;P1;durP2;ratioP2;P2;SDS_P1;SDS_P2;PMS_P1;PMS_P2;Temp;Humidity;BMP_temperature;BMP_pressure;BME280_temperature;BME280_humidity;BME280_pressure;Samples;Min_cycle;Max_cycle;Signal;HPM_P1;HPM_P2
2023/06/18 00:02:12;;;;;;;5.35;4.05;;;;;;;28.35;35.05;101030.09;4983400;28;20085;-62
2023/06/18 00:04:38;;;;;;;8.43;4.00;;;;;;;28.30;34.59;101028.09;4991786;28;20485;-62
2023/06/18 00:07:03;;;;;;;7.43;4.22;;;;;;;28.30;35.00;101028.09;4994326;28;20027;-62
2023/06/18 00:09:29;;;;;;;8.55;3.83;;;;;;;28.27;35.15;101031.31;4996791;28;20122;-63
2023/06/18 00:11:54;;;;;;;5.78;4.10;;;;;;;28.23;34.43;101032.88;4996796;28;20465;-63
2023/06/18 00:14:20;;;;;;;7.80;3.80;;;;;;;28.17;34.54;101028.31;4995462;28;20113;-63
2023/06/18 00:16:45;;;;;;;6.22;4.10;;;;;;;28.12;35.49;101030.94;4996409;28;20560;-64
2023/06/18 00:19:11;;;;;;;5.60;4.05;;;;;;;28.05;34.55;101016.47;4996466;28;20034;-62
2023/06/18 00:21:37;;;;;;;6.68;4.00;;;;;;;27.99;35.07;101025.66;4996273;28;20573;-63
2023/06/18 00:24:03;;;;;;;6.47;3.97;;;;;;;27.92;35.57;101019.41;4995202;28;20517;-63
2023/06/18 00:26:28;;;;;;;5.13;3.45;;;;;;;27.88;35.00;101020.13;4996249;28;20061;-63
2023/06/18 00:28:54;;;;;;;5.50;3.60;;;;;;;27.83;34.81;101012.59;4996349;28;20121;-62
2023/06/18 00:31:19;;;;;;;9.00;4.38;;;;;;;27.77;35.08;100998.94;4996178;28;20494;-62
2023/06/18 00:33:45;;;;;;;7.10;3.80;;;;;;;27.73;35.58;101009.56;4994958;28;20099;-63
2023/06/18 00:36:10;;;;;;;6.72;3.85;;;;;;;27.67;35.54;101002.25;4994786;28;20035;-63
2023/06/18 00:38:36;;;;;;;5.38;3.80;;;;;;;27.63;34.87;101007.41;4995164;28;20493;-63
2023/06/18 00:41:02;;;;;;;6.47;3.60;;;;;;;27.60;35.59;101004.28;5011125;28;20072;-63
2023/06/18 00:43:27;;;;;;;7.18;4.15;;;;;;;27.56;35.41;101003.91;4996059;28;20035;-62
2023/06/18 00:46:01;;;;;;;6.97;4.43;;;;;;;27.52;35.31;101007.38;4975520;28;20502;-62
2023/06/18 00:48:27;;;;;;;8.23;4.70;;;;;;;27.49;35.55;101010.59;4987665;28;20043;-64
2023/06/18 00:50:53;;;;;;;5.55;4.30;;;;;;;27.43;35.68;101012.38;4994937;28;20041;-64
2023/06/18 00:53:20;;;;;;;6.55;3.92;;;;;;;27.38;35.92;101009.47;4994548;28;20034;-64
2023/06/18 00:55:46;;;;;;;6.65;4.85;;;;;;;27.34;35.11;101001.91;4995674;28;20056;-64
2023/06/18 00:58:13;;;;;;;7.68;4.28;;;;;;;27.29;35.35;101007.28;4995856;28;20034;-64
2023/06/18 01:00:40;;;;;;;12.55;4.55;;;;;;;27.22;35.60;101001.03;4995761;28;20039;-64
2023/06/18 01:03:16;;;;;;;8.15;4.80;;;;;;;27.17;35.44;101005.31;4995776;28;20109;-64
2023/06/18 01:05:56;;;;;;;6.05;3.42;;;;;;;27.14;35.56;101000.28;5010082;28;20042;-62
2023/06/18 01:08:22;;;;;;;5.63;4.13;;;;;;;27.09;36.38;101008.41;4994494;28;20049;-62
2023/06/18 01:11:00;;;;;;;7.20;4.05;;;;;;;27.03;35.88;100998.31;4994232;28;20034;-63
2023/06/18 01:13:26;;;;;;;9.63;4.82;;;;;;;26.98;36.07;101002.84;4995376;28;20498;-62
2023/06/18 01:15:51;;;;;;;8.88;4.13;;;;;;;26.94;36.14;100999.72;5010539;28;20045;-62
2023/06/18 01:18:17;;;;;;;4.53;3.85;;;;;;;26.91;35.94;101000.19;4992940;28;20034;-62
2023/06/18 01:20:44;;;;;;;10.75;4.07;;;;;;;26.87;36.27;101004.47;4995303;28;20469;-62
2023/06/18 01:23:15;;;;;;;8.20;4.68;;;;;;;26.85;35.89;101000.28;4978195;28;20069;-62
2023/06/18 01:25:42;;;;;;;8.65;4.88;;;;;;;26.81;36.02;100999.06;4977653;28;20047;-62
2023/06/18 01:28:08;;;;;;;6.38;4.47;;;;;;;26.77;35.91;100998.66;4978179;28;20486;-63
2023/06/18 01:30:37;;;;;;;4.85;3.58;;;;;;;26.71;36.32;100991.34;4978102;28;20026;-62
2023/06/18 01:33:04;;;;;;;7.28;4.07;;;;;;;26.66;36.32;100984.84;4995175;28;20386;-62
2023/06/18 01:35:30;;;;;;;7.93;4.53;;;;;;;26.59;36.15;100985.78;4993866;28;20023;-62
2023/06/18 01:38:01;;;;;;;7.68;4.72;;;;;;;26.54;36.57;100982.03;4993808;28;20019;-62
2023/06/18 01:40:48;;;;;;;9.43;4.53;;;;;;;26.47;36.58;100975.75;4995252;28;20117;-62
2023/06/18 01:43:25;;;;;;;11.02;4.10;;;;;;;26.39;36.28;100973.31;4994113;28;20065;-62
2023/06/18 01:45:59;;;;;;;11.23;4.15;;;;;;;26.33;36.22;100979.72;4995215;28;20038;-62
2023/06/18 01:48:26;;;;;;;6.75;4.15;;;;;;;26.31;36.24;100976.38;4993018;28;20054;-62
2023/06/18 01:50:52;;;;;;;9.18;4.45;;;;;;;26.26;36.76;100973.47;4993507;28;20121;-62
2023/06/18 01:53:21;;;;;;;6.68;4.75;;;;;;;26.19;36.96;100979.03;4993682;28;20109;-62
2023/06/18 01:55:49;;;;;;;8.05;4.82;;;;;;;26.13;36.65;100974.41;4993354;28;20096;-62
2023/06/18 01:58:15;;;;;;;6.75;4.28;;;;;;;26.07;37.29;100980.00;4993312;28;20034;-63
2023/06/18 02:00:41;;;;;;;7.68;4.57;;;;;;;25.99;37.14;100976.47;4974037;28;20039;-62
2023/06/18 02:03:06;;;;;;;5.90;4.03;;;;;;;25.95;37.17;100966.16;4968301;28;20045;-63
2023/06/18 02:05:32;;;;;;;6.22;5.03;;;;;;;25.90;36.96;100972.34;4993409;28;20129;-62
2023/06/18 02:07:57;;;;;;;7.65;4.28;;;;;;;25.83;37.01;100968.81;4994198;28;20050;-63
2023/06/18 02:10:23;;;;;;;6.72;4.40;;;;;;;25.84;36.73;100975.16;4973566;28;20491;-63
2023/06/18 02:12:48;;;;;;;6.38;4.28;;;;;;;25.80;37.51;100976.66;4984360;28;20034;-63
2023/06/18 02:15:14;;;;;;;5.28;3.88;;;;;;;25.74;36.99;100972.09;5009210;28;20076;-63
2023/06/18 02:17:40;;;;;;;7.80;4.97;;;;;;;25.69;37.42;100967.25;4993155;28;20061;-63
2023/06/18 02:20:06;;;;;;;7.55;4.43;;;;;;;25.63;37.54;100968.13;4994311;28;20070;-63
2023/06/18 02:22:32;;;;;;;11.07;5.22;;;;;;;25.56;37.89;100967.38;4994129;28;20505;-63
2023/06/18 02:24:57;;;;;;;5.68;4.43;;;;;;;25.50;37.56;100960.03;4973462;28;20054;-63
2023/06/18 02:27:23;;;;;;;7.13;4.53;;;;;;;25.42;37.62;100954.78;4984643;28;20037;-62
2023/06/18 02:29:48;;;;;;;6.03;4.70;;;;;;;25.37;37.67;100955.47;4993659;28;20035;-63
2023/06/18 02:32:14;;;;;;;7.70;5.05;;;;;;;25.31;37.84;100959.09;4994356;28;20092;-62
2023/06/18 02:34:40;;;;;;;7.53;4.40;;;;;;;25.23;38.19;100950.28;4976736;28;20030;-62
2023/06/18 02:37:06;;;;;;;6.78;4.32;;;;;;;25.24;37.96;100962.94;4994398;28;20072;-62
2023/06/18 02:39:32;;;;;;;7.95;4.18;;;;;;;25.19;38.41;100960.00;4994023;28;20129;-63
2023/06/18 02:41:57;;;;;;;7.50;4.03;;;;;;;25.12;38.23;100953.75;5005546;28;20571;-62
2023/06/18 02:44:24;;;;;;;8.70;4.95;;;;;;;25.09;38.19;100952.28;5012533;28;20064;-62
2023/06/18 02:46:50;;;;;;;6.82;4.97;;;;;;;25.08;38.04;100952.50;5013609;28;20034;-62
2023/06/18 02:49:15;;;;;;;9.82;4.75;;;;;;;25.06;38.06;100954.63;5013515;28;20512;-63
2023/06/18 02:51:41;;;;;;;9.77;4.65;;;;;;;25.04;38.07;100956.75;5013468;28;20030;-62
2023/06/18 02:54:07;;;;;;;7.93;4.57;;;;;;;25.00;37.87;100944.53;5012280;28;20468;-63
2023/06/18 02:56:32;;;;;;;8.15;4.28;;;;;;;24.96;37.97;100948.78;5013165;28;20497;-62
2023/06/18 02:58:58;;;;;;;10.55;4.68;;;;;;;24.93;37.66;100949.25;5013270;28;20406;-63
2023/06/18 03:01:24;;;;;;;8.07;4.57;;;;;;;24.87;38.11;100949.03;5013290;28;20026;-63
2023/06/18 03:03:50;;;;;;;12.10;4.60;;;;;;;24.84;37.93;100962.34;5013157;28;20038;-63
2023/06/18 03:06:16;;;;;;;11.75;4.78;;;;;;;24.77;38.32;100951.38;5012121;28;20034;-62
2023/06/18 03:08:41;;;;;;;12.30;4.63;;;;;;;24.76;38.44;100966.13;5013077;28;20042;-63
2023/06/18 03:11:07;;;;;;;5.50;4.30;;;;;;;24.72;38.46;100964.91;5011428;28;20129;-66
2023/06/18 03:13:33;;;;;;;11.95;4.72;;;;;;;24.67;38.16;100961.97;5013020;28;20057;-62
2023/06/18 03:15:58;;;;;;;7.00;4.93;;;;;;;24.68;38.06;100968.31;5012940;28;20037;-63
2023/06/18 03:18:23;;;;;;;6.75;5.18;;;;;;;24.66;38.47;100956.72;5012922;28;20481;-63
2023/06/18 03:20:49;;;;;;;7.55;4.72;;;;;;;24.65;38.96;100968.75;5011883;28;20072;-63
2023/06/18 03:23:15;;;;;;;10.98;4.88;;;;;;;24.63;38.52;100970.84;5011787;28;20498;-62
2023/06/18 03:25:41;;;;;;;7.03;4.38;;;;;;;24.65;38.57;100968.75;4995423;28;20408;-62
2023/06/18 03:28:06;;;;;;;11.45;4.85;;;;;;;24.63;38.25;100974.41;5013050;28;20056;-63
2023/06/18 03:30:32;;;;;;;7.47;5.13;;;;;;;24.60;38.45;100972.13;5012976;28;20038;-63
2023/06/18 03:33:01;;;;;;;11.85;5.32;;;;;;;24.59;38.80;100978.69;5012809;28;20053;-63
2023/06/18 03:35:27;;;;;;;13.13;5.10;;;;;;;24.56;38.04;100979.09;5011857;28;20413;-63
2023/06/18 03:37:52;;;;;;;8.32;4.45;;;;;;;24.52;38.44;100980.59;5012894;28;20038;-63
2023/06/18 03:40:18;;;;;;;7.93;4.57;;;;;;;24.50;38.26;100981.84;4979013;28;20023;-62
2023/06/18 03:42:43;;;;;;;6.80;4.88;;;;;;;24.44;39.10;100972.59;5014549;28;20030;-62
2023/06/18 03:45:12;;;;;;;5.93;4.30;;;;;;;24.42;38.80;100977.47;5017848;28;20458;-62
2023/06/18 03:47:37;;;;;;;6.35;4.18;;;;;;;24.40;38.85;100976.81;5000261;28;20053;-63
2023/06/18 03:50:03;;;;;;;7.78;4.93;;;;;;;24.40;39.20;100976.00;5015496;28;20062;-62
2023/06/18 03:52:28;;;;;;;6.40;4.50;;;;;;;24.37;38.54;100969.06;5016820;28;20083;-62
2023/06/18 03:54:54;;;;;;;10.18;5.00;;;;;;;24.41;38.48;100967.56;5016808;28;20038;-62
2023/06/18 03:57:19;;;;;;;8.23;4.60;;;;;;;24.42;38.79;100974.72;5015216;28;20099;-62
2023/06/18 03:59:45;;;;;;;9.57;4.82;;;;;;;24.42;39.33;100982.94;4998983;28;20501;-62
2023/06/18 04:02:12;;;;;;;6.25;4.65;;;;;;;24.45;38.39;100981.66;5015570;28;20030;-62
2023/06/18 04:04:40;;;;;;;7.97;4.43;;;;;;;24.48;39.07;100973.03;5016592;28;20048;-62
2023/06/18 04:07:05;;;;;;;10.93;4.78;;;;;;;24.48;38.99;100973.88;5015666;28;20048;-62
2023/06/18 04:09:30;;;;;;;7.13;4.00;;;;;;;24.53;38.61;100976.78;4998911;28;20565;-63
2023/06/18 04:11:56;;;;;;;6.78;4.43;;;;;;;24.54;38.67;100972.16;5017275;28;20048;-62
2023/06/18 04:14:22;;;;;;;8.98;5.22;;;;;;;24.58;38.49;100974.25;5015479;28;20453;-62
2023/06/18 04:16:47;;;;;;;7.18;4.68;;;;;;;24.62;38.76;100970.00;5011807;28;20038;-62
2023/06/18 04:19:13;;;;;;;7.53;5.07;;;;;;;24.68;38.40;100973.78;5011736;28;20034;-62
2023/06/18 04:21:38;;;;;;;5.30;4.20;;;;;;;24.70;38.55;100972.50;5012623;28;20034;-62
2023/06/18 04:24:05;;;;;;;7.30;4.57;;;;;;;24.72;39.11;100964.91;5015279;28;20051;-63
2023/06/18 04:26:30;;;;;;;6.63;4.47;;;;;;;24.77;39.30;100975.19;5015283;28;20481;-62
2023/06/18 04:28:56;;;;;;;10.15;4.82;;;;;;;24.79;38.93;100968.47;5015594;28;20041;-62
2023/06/18 04:31:21;;;;;;;10.38;5.75;;;;;;;24.80;39.09;100967.41;5014930;28;20068;-62
2023/06/18 04:33:46;;;;;;;8.43;5.25;;;;;;;24.85;39.52;100964.84;5016065;28;20053;-62
2023/06/18 04:36:12;;;;;;;5.13;4.60;;;;;;;24.88;39.22;100964.44;4998571;28;20563;-62
2023/06/18 04:38:38;;;;;;;6.78;4.43;;;;;;;24.89;38.88;100960.63;5016049;28;20046;-62
2023/06/18 04:41:03;;;;;;;8.80;4.60;;;;;;;24.95;39.51;100966.28;5016101;28;20520;-62
2023/06/18 04:43:29;;;;;;;9.77;4.80;;;;;;;24.99;39.76;100962.03;5016070;28;20049;-62
2023/06/18 04:45:54;;;;;;;10.43;4.63;;;;;;;25.02;38.75;100967.94;5015020;28;20049;-61
2023/06/18 04:48:19;;;;;;;8.45;4.60;;;;;;;25.06;39.13;100962.84;5016213;28;20049;-62
2023/06/18 04:50:45;;;;;;;10.75;4.45;;;;;;;25.08;39.34;100960.72;5015792;28;20382;-62
2023/06/18 04:53:10;;;;;;;8.07;4.40;;;;;;;25.15;39.42;100970.59;5015814;28;20084;-62
2023/06/18 04:55:37;;;;;;;7.57;4.55;;;;;;;25.20;39.52;100956.22;5014745;28;20030;-63
2023/06/18 04:58:04;;;;;;;9.43;3.75;;;;;;;25.24;39.40;100954.69;5014813;28;20049;-62
2023/06/18 05:00:30;;;;;;;6.55;4.35;;;;;;;25.30;39.04;100956.56;5016379;28;20057;-61
2023/06/18 05:02:57;;;;;;;11.63;4.35;;;;;;;25.37;39.46;100965.59;5014229;28;20038;-62
2023/06/18 05:05:22;;;;;;;5.35;3.80;;;;;;;25.45;39.04;100963.44;5015437;28;20069;-62
2023/06/18 05:07:48;;;;;;;14.77;4.70;;;;;;;25.54;39.05;100972.25;5013730;28;20069;-62
2023/06/18 05:10:13;;;;;;;7.80;4.78;;;;;;;25.62;39.21;100971.97;5013953;28;20084;-62
2023/06/18 05:12:39;;;;;;;8.85;4.50;;;;;;;25.72;39.25;100969.53;5014157;28;20523;-62
2023/06/18 05:15:06;;;;;;;8.32;4.50;;;;;;;25.85;38.85;100977.66;5010183;28;20045;-62
2023/06/18 05:17:32;;;;;;;9.18;5.15;;;;;;;26.00;39.04;100988.28;5013599;28;20108;-62
2023/06/18 05:19:57;;;;;;;10.27;5.03;;;;;;;26.16;38.65;100984.97;5013774;28;20065;-62
2023/06/18 05:22:22;;;;;;;8.70;4.28;;;;;;;26.29;38.72;100995.84;4997555;28;20113;-62
2023/06/18 05:24:48;;;;;;;6.15;4.28;;;;;;;26.44;38.68;100999.03;5013869;28;20506;-63
2023/06/18 05:27:13;;;;;;;8.82;5.03;;;;;;;26.57;38.83;100992.56;5013938;28;20026;-62
2023/06/18 05:29:38;;;;;;;15.93;4.50;;;;;;;26.72;39.04;100993.00;5030237;28;20069;-63
2023/06/18 05:32:04;;;;;;;5.60;4.13;;;;;;;26.84;38.79;100988.44;5014812;28;20409;-62
2023/06/18 05:34:30;;;;;;;6.47;4.47;;;;;;;26.95;38.84;100995.91;5014644;28;20038;-63
2023/06/18 05:36:55;;;;;;;6.70;4.70;;;;;;;27.09;38.60;100989.16;5029986;28;20389;-63
2023/06/18 05:39:21;;;;;;;6.60;3.80;;;;;;;27.22;38.42;100990.03;5013324;28;20025;-62
2023/06/18 05:41:48;;;;;;;7.82;4.10;;;;;;;27.40;38.87;100998.22;5013140;28;20033;-62
2023/06/18 05:44:13;;;;;;;5.38;3.70;;;;;;;27.53;37.56;101000.78;4997496;28;20473;-63
2023/06/18 05:46:39;;;;;;;11.32;4.22;;;;;;;27.64;38.27;100997.22;5014482;28;20107;-62
2023/06/18 05:49:04;;;;;;;6.15;4.43;;;;;;;27.83;37.72;100998.81;5013334;28;20022;-63
2023/06/18 05:51:29;;;;;;;6.68;4.00;;;;;;;28.03;37.08;100998.50;4996746;28;20511;-62
2023/06/18 05:53:55;;;;;;;7.30;4.43;;;;;;;28.20;36.77;101000.28;5014265;28;20072;-62
2023/06/18 05:56:20;;;;;;;7.32;4.38;;;;;;;28.39;36.16;101003.75;4996697;28;20064;-63
2023/06/18 05:58:46;;;;;;;9.07;3.85;;;;;;;28.59;35.86;101001.41;4996795;28;20429;-63
2023/06/18 06:01:11;;;;;;;5.40;3.90;;;;;;;28.79;35.86;100998.28;4996962;28;20103;-63
2023/06/18 06:03:36;;;;;;;5.97;4.50;;;;;;;29.01;36.31;101004.78;4996596;28;20030;-62
2023/06/18 06:06:02;;;;;;;7.65;4.53;;;;;;;29.21;35.72;101002.44;5012529;28;20052;-62
2023/06/18 06:08:28;;;;;;;4.63;3.95;;;;;;;29.43;35.81;101006.19;5012799;28;20045;-64
2023/06/18 06:10:53;;;;;;;6.30;3.95;;;;;;;29.68;35.24;100996.66;5013016;28;20033;-62
2023/06/18 06:13:19;;;;;;;3.30;3.00;;;;;;;29.95;35.05;101000.47;5013105;28;20056;-63
2023/06/18 06:15:44;;;;;;;6.07;3.83;;;;;;;30.25;34.45;100995.41;4996496;28;20025;-62
2023/06/18 06:18:09;;;;;;;8.40;4.13;;;;;;;30.48;33.90;101003.50;5013877;28;20104;-63
2023/06/18 06:20:35;;;;;;;5.97;3.55;;;;;;;30.66;34.00;101010.63;4996572;28;20488;-63
2023/06/18 06:23:00;;;;;;;5.47;3.03;;;;;;;30.69;34.13;101014.81;5013839;28;20469;-63
2023/06/18 06:25:25;;;;;;;4.88;3.22;;;;;;;30.70;33.69;101022.88;5014437;28;20025;-63
2023/06/18 06:27:51;;;;;;;8.48;3.67;;;;;;;30.72;33.85;101028.97;5013896;28;20488;-65
2023/06/18 06:30:16;;;;;;;5.38;3.35;;;;;;;30.68;33.53;101029.75;5013944;28;20021;-63
2023/06/18 06:32:42;;;;;;;4.57;3.40;;;;;;;30.61;33.06;101054.84;5012727;28;20032;-63
2023/06/18 06:35:07;;;;;;;4.68;3.10;;;;;;;30.54;33.56;101051.44;5014121;28;20026;-64
2023/06/18 06:37:33;;;;;;;5.15;3.67;;;;;;;30.49;33.76;101043.03;5014494;28;20048;-63
2023/06/18 06:39:58;;;;;;;6.22;3.60;;;;;;;30.46;33.34;101055.44;5012896;28;20516;-63
2023/06/18 06:42:24;;;;;;;7.20;3.45;;;;;;;30.45;33.01;101059.31;5013944;28;20026;-63
2023/06/18 06:44:49;;;;;;;6.90;3.67;;;;;;;30.48;32.73;101045.00;5013174;28;20026;-62
2023/06/18 06:47:15;;;;;;;6.82;3.20;;;;;;;30.50;33.16;101044.72;5015660;28;20034;-62
2023/06/18 06:49:41;;;;;;;5.90;2.97;;;;;;;30.53;33.21;101055.28;5015987;28;20022;-62
2023/06/18 06:52:06;;;;;;;8.20;4.05;;;;;;;30.52;32.61;101065.50;5017779;28;20021;-62
2023/06/18 06:54:32;;;;;;;6.38;3.10;;;;;;;30.55;32.68;101062.22;5017595;28;20101;-62
2023/06/18 06:56:57;;;;;;;5.95;3.60;;;;;;;30.56;32.59;101058.38;5002731;28;20053;-62
2023/06/18 06:59:22;;;;;;;4.53;2.83;;;;;;;30.62;32.27;101058.44;4997478;28;20097;-63
2023/06/18 07:01:48;;;;;;;6.53;2.92;;;;;;;30.67;32.18;101058.50;5017099;28;20033;-61
2023/06/18 07:04:13;;;;;;;9.57;3.58;;;;;;;30.74;32.42;101065.53;4997409;28;20049;-62
2023/06/18 07:06:39;;;;;;;8.00;3.50;;;;;;;30.86;31.90;101070.94;4993244;28;20022;-61
2023/06/18 07:09:07;;;;;;;9.90;4.00;;;;;;;31.01;31.54;101074.78;4992319;28;20046;-62
2023/06/18 07:11:36;;;;;;;6.97;3.38;;;;;;;31.10;31.65;101067.69;4976313;28;20038;-61
2023/06/18 07:14:02;;;;;;;5.38;3.20;;;;;;;31.20;31.28;101072.50;4992557;28;20038;-62
2023/06/18 07:16:27;;;;;;;5.22;2.63;;;;;;;31.28;31.19;101074.81;4992512;28;20101;-62
2023/06/18 07:18:52;;;;;;;4.22;3.03;;;;;;;31.36;31.16;101071.56;4977051;28;20173;-61
2023/06/18 07:21:18;;;;;;;6.70;3.22;;;;;;;31.48;30.66;101071.47;4993636;28;20033;-63
2023/06/18 07:23:43;;;;;;;6.93;3.42;;;;;;;31.56;30.70;101066.28;4989041;28;20035;-62
2023/06/18 07:26:09;;;;;;;4.40;3.30;;;;;;;31.81;30.12;101064.84;4978096;28;20038;-62
2023/06/18 07:28:34;;;;;;;6.28;3.22;;;;;;;31.95;29.92;101068.84;4992273;28;20125;-62
2023/06/18 07:31:00;;;;;;;6.78;2.85;;;;;;;32.20;30.28;101069.09;4992095;28;20035;-62
2023/06/18 07:33:26;;;;;;;8.40;3.47;;;;;;;32.42;29.42;101068.97;4992030;28;20545;-61
2023/06/18 07:35:51;;;;;;;3.67;2.70;;;;;;;32.61;29.47;101059.94;4992988;28;20034;-62
2023/06/18 07:38:16;;;;;;;6.88;2.95;;;;;;;32.84;29.89;101067.84;4993393;28;20220;-62
2023/06/18 07:40:42;;;;;;;8.60;3.03;;;;;;;33.16;29.83;101069.69;4988648;28;20031;-62
2023/06/18 07:43:09;;;;;;;5.05;2.97;;;;;;;33.46;28.91;101057.81;4976933;28;20023;-62
2023/06/18 07:45:34;;;;;;;3.53;2.78;;;;;;;33.79;28.57;101058.16;4991103;23;20042;-62
2023/06/18 07:48:00;;;;;;;3.72;2.85;;;;;;;34.27;28.96;101058.72;4937326;29;20384;-62
2023/06/18 07:50:26;;;;;;;6.53;2.90;;;;;;;34.47;27.62;101055.91;4954748;28;20031;-62
2023/06/18 07:52:51;;;;;;;4.70;2.90;;;;;;;34.64;27.63;101048.09;4953732;28;20089;-63
2023/06/18 07:55:16;;;;;;;3.63;2.63;;;;;;;34.70;28.56;101048.94;4954848;28;20023;-62
2023/06/18 07:57:42;;;;;;;5.20;3.15;;;;;;;34.71;27.49;101048.63;4955056;28;20020;-62
2023/06/18 08:00:08;;;;;;;4.97;2.60;;;;;;;34.75;27.84;101055.31;4955118;28;20474;-63
2023/06/18 08:02:33;;;;;;;5.75;3.40;;;;;;;34.86;28.24;101053.31;4954895;28;20066;-62
2023/06/18 08:04:59;;;;;;;3.05;2.72;;;;;;;34.98;27.40;101048.25;4953539;29;20031;-62
2023/06/18 08:07:25;;;;;;;7.15;3.00;;;;;;;35.18;26.90;101055.72;4953558;28;20031;-63
2023/06/18 08:09:50;;;;;;;3.95;3.35;;;;;;;35.18;27.19;101053.75;4962163;28;20471;-62
2023/06/18 08:12:16;;;;;;;4.80;3.20;;;;;;;35.16;27.91;101052.34;4974345;28;20042;-62
2023/06/18 08:14:45;;;;;;;4.53;2.72;;;;;;;35.17;26.71;101048.47;4956661;28;20038;-62
2023/06/18 08:17:15;;;;;;;4.15;3.05;;;;;;;35.18;27.51;101047.34;4956668;28;20038;-62
2023/06/18 08:19:44;;;;;;;8.10;3.47;;;;;;;35.11;27.69;101041.25;4974032;28;20037;-62
2023/06/18 08:22:12;;;;;;;5.43;3.67;;;;;;;35.04;27.48;101042.34;4973914;28;20557;-63
2023/06/18 08:24:38;;;;;;;4.47;3.35;;;;;;;34.97;27.54;101041.00;4956959;28;20490;-62
2023/06/18 08:27:03;;;;;;;7.15;2.95;;;;;;;34.96;27.44;101037.38;4972771;28;20053;-63
2023/06/18 08:29:29;;;;;;;9.05;3.40;;;;;;;34.91;27.04;101037.41;4959884;28;20038;-62
2023/06/18 08:31:55;;;;;;;3.78;3.15;;;;;;;34.89;26.78;101039.66;4976192;28;20117;-63
2023/06/18 08:34:20;;;;;;;6.38;2.67;;;;;;;34.87;27.66;101036.31;4977218;28;20026;-62
2023/06/18 08:36:47;;;;;;;3.72;3.00;;;;;;;34.89;27.73;101034.09;4976088;28;20045;-64
2023/06/18 08:39:13;;;;;;;4.53;2.83;;;;;;;34.89;27.71;101031.31;4959905;28;20548;-64
2023/06/18 08:41:42;;;;;;;6.88;3.63;;;;;;;34.94;26.82;101034.06;4959906;28;20101;-64
2023/06/18 08:44:07;;;;;;;10.60;2.47;;;;;;;35.11;27.13;101030.09;4944744;28;20113;-65
2023/06/18 08:46:35;;;;;;;3.60;3.03;;;;;;;35.20;26.47;101023.66;4949568;29;20131;-64
2023/06/18 08:49:00;;;;;;;5.20;2.72;;;;;;;35.31;26.52;101030.84;4919607;29;20127;-65
2023/06/18 08:51:26;;;;;;;3.10;2.60;;;;;;;35.40;26.79;101029.06;4918632;29;20532;-65
2023/06/18 08:54:15;;;;;;;5.18;2.97;;;;;;;35.60;26.70;101031.75;4918162;29;20028;-65
2023/06/18 08:56:51;;;;;;;3.78;2.42;;;;;;;35.84;26.44;101029.06;4918214;29;20028;-65
2023/06/18 08:59:18;;;;;;;3.65;2.90;;;;;;;35.92;27.02;101028.44;4898244;29;20108;-65
2023/06/18 09:01:45;;;;;;;3.30;2.90;;;;;;;35.94;26.71;101028.97;4919659;29;20391;-65
2023/06/18 09:04:12;;;;;;;6.13;3.15;;;;;;;35.93;26.28;101024.50;4919547;29;20028;-65
2023/06/18 09:06:39;;;;;;;6.03;3.60;;;;;;;35.86;27.03;101021.22;4917863;29;20032;-64
2023/06/18 09:09:04;;;;;;;5.88;3.65;;;;;;;35.79;26.31;101023.53;4902285;29;20039;-65
2023/06/18 09:11:31;;;;;;;5.90;2.90;;;;;;;35.74;26.73;101022.72;4917891;29;20396;-65
2023/06/18 09:13:57;;;;;;;4.97;3.08;;;;;;;35.72;26.97;101017.44;4917995;29;20036;-65
2023/06/18 09:16:22;;;;;;;3.28;2.80;;;;;;;35.76;26.86;101021.34;4886544;29;20039;-64
2023/06/18 09:18:48;;;;;;;5.93;3.10;;;;;;;35.73;26.48;101021.91;4917936;29;20039;-65
2023/06/18 09:21:42;;;;;;;4.90;3.67;;;;;;;35.72;26.19;101017.44;4917814;29;20032;-66
2023/06/18 09:24:19;;;;;;;6.13;3.03;;;;;;;35.74;26.54;101015.19;4917712;29;20028;-65
2023/06/18 09:26:45;;;;;;;6.57;3.15;;;;;;;35.74;26.34;101017.97;4917797;29;20144;-64
2023/06/18 09:29:11;;;;;;;5.85;3.10;;;;;;;35.75;26.11;101013.25;4902153;29;20028;-64
2023/06/18 09:31:44;;;;;;;4.32;3.08;;;;;;;35.73;26.50;101010.75;4917630;29;20063;-64
2023/06/18 09:34:14;;;;;;;5.50;3.78;;;;;;;35.70;26.69;101010.50;4918985;29;20036;-65
2023/06/18 09:36:41;;;;;;;5.10;3.20;;;;;;;35.65;26.75;101009.41;4917509;29;20028;-65
2023/06/18 09:39:15;;;;;;;8.77;2.75;;;;;;;35.61;27.50;101002.78;4916483;29;20048;-65
2023/06/18 09:41:41;;;;;;;3.65;3.22;;;;;;;35.59;26.99;101009.75;4918532;29;20095;-65
2023/06/18 09:44:07;;;;;;;3.67;2.80;;;;;;;35.59;27.07;100995.81;4918526;29;20032;-64
2023/06/18 09:46:32;;;;;;;4.68;3.25;;;;;;;35.59;27.32;100995.81;4916966;29;20084;-64
2023/06/18 09:48:59;;;;;;;4.22;3.10;;;;;;;35.58;26.78;100991.34;4917116;29;20024;-65
2023/06/18 09:51:25;;;;;;;6.53;2.85;;;;;;;35.52;26.81;100984.13;4917548;29;20166;-64
2023/06/18 09:53:59;;;;;;;8.20;3.80;;;;;;;35.43;27.09;100988.66;4917124;29;20551;-65
2023/06/18 09:56:25;;;;;;;5.00;3.08;;;;;;;35.33;27.40;100994.31;4886311;29;20024;-65
2023/06/18 09:58:51;;;;;;;4.10;3.40;;;;;;;35.15;27.23;100987.44;4918418;29;20038;-65
2023/06/18 10:01:18;;;;;;;4.82;3.50;;;;;;;35.18;27.08;100992.44;4901587;29;20024;-65
2023/06/18 10:03:44;;;;;;;5.07;2.83;;;;;;;35.12;26.90;100987.22;4918300;29;20665;-65
2023/06/18 10:06:16;;;;;;;8.25;2.88;;;;;;;35.08;27.91;100987.78;4918372;29;20470;-65
2023/06/18 10:08:42;;;;;;;;;;;;;;;35.06;27.57;100990.03;4901516;29;20040;-65
2023/06/18 10:11:09;;;;;;;8.23;3.25;;;;;;;34.99;28.18;100994.19;4916947;29;19915;-64
2023/06/18 10:13:41;;;;;;;5.35;3.00;;;;;;;34.91;27.71;100987.28;4918227;29;20038;-64
2023/06/18 10:16:07;;;;;;;3.45;2.88;;;;;;;34.81;27.53;100980.94;4901052;29;20110;-64
2023/06/18 10:18:33;;;;;;;3.97;2.88;;;;;;;34.68;28.28;100976.81;4917873;29;20119;-64
2023/06/18 10:21:03;;;;;;;3.78;2.35;;;;;;;34.56;28.22;100978.25;4917042;29;20468;-64
2023/06/18 10:23:33;;;;;;;5.30;2.58;;;;;;;34.45;28.44;100978.25;4916828;29;20044;-63
2023/06/18 10:26:00;;;;;;;3.60;3.08;;;;;;;34.37;28.83;100984.41;4900632;29;20031;-63
2023/06/18 10:28:27;;;;;;;5.72;2.95;;;;;;;34.29;28.88;100995.28;4916733;29;20122;-64
2023/06/18 10:30:53;;;;;;;5.03;2.88;;;;;;;34.21;28.12;100988.34;4932199;29;20118;-64
2023/06/18 10:33:19;;;;;;;3.38;3.03;;;;;;;34.14;27.96;100993.38;4885263;29;20051;-63
2023/06/18 10:35:45;;;;;;;18.33;5.95;;;;;;;34.06;28.55;100996.69;4916339;29;20476;-63
2023/06/18 10:38:11;;;;;;;7.68;3.17;;;;;;;34.01;28.72;100993.91;4916759;29;20031;-63
2023/06/18 10:40:38;;;;;;;5.85;4.20;;;;;;;33.97;29.15;100993.66;4916267;29;20488;-63
2023/06/18 10:43:06;;;;;;;4.80;3.20;;;;;;;33.91;29.14;100994.78;4916420;29;20449;-63
2023/06/18 10:45:32;;;;;;;6.05;3.50;;;;;;;33.89;28.46;100988.63;4917507;29;20358;-63
2023/06/18 10:48:28;;;;;;;4.72;3.13;;;;;;;33.89;29.22;100983.09;4917652;29;20535;-64
2023/06/18 10:51:17;;;;;;;6.82;3.22;;;;;;;33.87;28.80;100981.69;4916922;29;20100;-63
2023/06/18 10:53:44;;;;;;;3.28;2.67;;;;;;;33.87;28.50;100974.19;4916093;29;20484;-63
2023/06/18 10:56:10;;;;;;;5.50;3.28;;;;;;;33.84;29.42;100971.13;4901017;29;20035;-63
2023/06/18 10:58:39;;;;;;;4.32;3.92;;;;;;;33.79;29.34;100969.19;4917272;29;20036;-63
2023/06/18 11:01:06;;;;;;;6.07;3.15;;;;;;;33.81;29.67;100963.38;4916037;29;20020;-63
2023/06/18 11:03:37;;;;;;;4.20;3.50;;;;;;;33.76;29.38;100964.19;4916174;29;20028;-64
2023/06/18 11:06:04;;;;;;;6.00;2.97;;;;;;;33.77;29.54;100971.44;4916290;29;20423;-63
2023/06/18 11:08:34;;;;;;;6.90;3.58;;;;;;;33.72;29.48;100971.44;4916201;29;20326;-63
2023/06/18 11:11:07;;;;;;;3.58;3.15;;;;;;;33.66;29.57;100969.78;4916685;29;20151;-63
2023/06/18 11:13:37;;;;;;;9.50;2.90;;;;;;;33.60;29.20;100970.03;4916669;29;20024;-64
2023/06/18 11:16:05;;;;;;;4.22;3.45;;;;;;;33.54;29.88;100966.41;4918120;29;20028;-64
2023/06/18 11:18:55;;;;;;;4.78;3.13;;;;;;;33.51;29.36;100963.34;4917319;29;20035;-64
2023/06/18 11:21:20;;;;;;;5.95;3.03;;;;;;;33.47;29.41;100954.75;4918541;29;20039;-62
2023/06/18 11:23:47;;;;;;;6.93;3.20;;;;;;;33.52;29.90;100957.50;4916370;29;20569;-63